sensor_id;sensor_type;location;lat;lon;timestamp;temperature;humidity
8178;DHT22;4130;48.740;9.132;2022-10-17T00:00:37;11.40;99.90
8178;DHT22;4130;48.740;9.132;2022-10-17T00:03:04;11.30;99.90
8178;DHT22;4130;48.740;9.132;2022-10-17T00:05:31;11.40;99.90
8178;DHT22;4130;48.740;9.132;2022-10-17T00:07:57;11.30;99.90
8178;DHT22;4130;48.740;9.132;2022-10-17T00:10:24;11.20;99.90
8178;DHT22;4130;48.740;9.132;2022-10-17T00:12:51;11.30;99.90
8178;DHT22;4130;48.740;9.132;2022-10-17T00:15:20;11.30;99.90
8178;DHT22;4130;48.740;9.132;2022-10-17T00:17:47;11.20;99.90
8178;DHT22;4130;48.740;9.132;2022-10-17T00:20:14;11.20;99.90
8178;DHT22;4130;48.740;9.132;2022-10-17T00:22:41;11.20;99.90
8178;DHT22;4130;48.740;9.132;2022-10-17T00:25:08;11.20;99.90
8178;DHT22;4130;48.740;9.132;2022-10-17T00:27:36;11.20;99.90
8178;DHT22;4130;48.740;9.132;2022-10-17T00:30:05;11.30;99.90
8178;DHT22;4130;48.740;9.132;2022-10-17T00:32:33;11.20;99.90
8178;DHT22;4130;48.740;9.132;2022-10-17T00:35:01;11.20;99.90
8178;DHT22;4130;48.740;9.132;2022-10-17T00:37:29;11.10;99.90
8178;DHT22;4130;48.740;9.132;2022-10-17T00:39:55;11.10;99.90
8178;DHT22;4130;48.740;9.132;2022-10-17T00:42:22;11.10;99.90
8178;DHT22;4130;48.740;9.132;2022-10-17T00:47:47;11.00;99.90
8178;DHT22;4130;48.740;9.132;2022-10-17T00:50:15;11.00;99.90
8178;DHT22;4130;48.740;9.132;2022-10-17T00:52:42;11.00;99.90
8178;DHT22;4130;48.740;9.132;2022-10-17T00:55:12;11.40;99.90
8178;DHT22;4130;48.740;9.132;2022-10-17T00:57:40;11.10;99.90
8178;DHT22;4130;48.740;9.132;2022-10-17T01:00:09;11.00;99.90
8178;DHT22;4130;48.740;9.132;2022-10-17T01:02:37;11.00;99.90
8178;DHT22;4130;48.740;9.132;2022-10-17T01:05:05;10.90;99.90
8178;DHT22;4130;48.740;9.132;2022-10-17T01:07:33;10.90;99.90
8178;DHT22;4130;48.740;9.132;2022-10-17T01:10:00;10.90;99.90
8178;DHT22;4130;48.740;9.132;2022-10-17T01:12:31;10.90;99.90
8178;DHT22;4130;48.740;9.132;2022-10-17T01:15:07;11.40;99.90
8178;DHT22;4130;48.740;9.132;2022-10-17T01:17:43;10.90;99.90
8178;DHT22;4130;48.740;9.132;2022-10-17T01:20:46;10.90;99.90
8178;DHT22;4130;48.740;9.132;2022-10-17T01:24:02;10.80;99.90
8178;DHT22;4130;48.740;9.132;2022-10-17T01:26:46;10.70;99.90
8178;DHT22;4130;48.740;9.132;2022-10-17T01:29:35;10.70;99.90
8178;DHT22;4130;48.740;9.132;2022-10-17T01:32:09;10.70;99.90
8178;DHT22;4130;48.740;9.132;2022-10-17T01:34:42;10.70;99.90
8178;DHT22;4130;48.740;9.132;2022-10-17T01:37:17;10.60;99.90
8178;DHT22;4130;48.740;9.132;2022-10-17T01:39:49;10.70;99.90
8178;DHT22;4130;48.740;9.132;2022-10-17T01:42:22;10.60;99.90
8178;DHT22;4130;48.740;9.132;2022-10-17T01:44:54;10.70;99.90
8178;DHT22;4130;48.740;9.132;2022-10-17T01:47:27;10.70;99.90
8178;DHT22;4130;48.740;9.132;2022-10-17T01:49:58;10.60;99.90
8178;DHT22;4130;48.740;9.132;2022-10-17T01:52:31;10.60;99.90
8178;DHT22;4130;48.740;9.132;2022-10-17T01:55:03;10.70;99.90
8178;DHT22;4130;48.740;9.132;2022-10-17T01:57:35;10.50;99.90
8178;DHT22;4130;48.740;9.132;2022-10-17T02:00:07;10.50;99.90
8178;DHT22;4130;48.740;9.132;2022-10-17T02:02:37;10.50;99.90
8178;DHT22;4130;48.740;9.132;2022-10-17T02:05:05;10.50;99.90
8178;DHT22;4130;48.740;9.132;2022-10-17T02:07:32;10.50;99.90
8178;DHT22;4130;48.740;9.132;2022-10-17T02:09:59;10.50;99.90
8178;DHT22;4130;48.740;9.132;2022-10-17T02:12:44;10.50;99.90
8178;DHT22;4130;48.740;9.132;2022-10-17T02:18:23;10.50;99.90
8178;DHT22;4130;48.740;9.132;2022-10-17T02:20:56;10.50;99.90
8178;DHT22;4130;48.740;9.132;2022-10-17T02:23:30;10.50;99.90
8178;DHT22;4130;48.740;9.132;2022-10-17T02:26:10;10.50;99.90
8178;DHT22;4130;48.740;9.132;2022-10-17T02:28:40;10.40;99.90
8178;DHT22;4130;48.740;9.132;2022-10-17T02:31:14;10.40;99.90
8178;DHT22;4130;48.740;9.132;2022-10-17T02:33:45;10.40;99.90
8178;DHT22;4130;48.740;9.132;2022-10-17T02:36:18;10.50;99.90
8178;DHT22;4130;48.740;9.132;2022-10-17T02:38:47;10.50;99.90
8178;DHT22;4130;48.740;9.132;2022-10-17T02:41:16;10.50;99.90
8178;DHT22;4130;48.740;9.132;2022-10-17T02:43:44;10.50;99.90
8178;DHT22;4130;48.740;9.132;2022-10-17T02:46:13;10.50;99.90
8178;DHT22;4130;48.740;9.132;2022-10-17T02:48:48;10.40;99.90
8178;DHT22;4130;48.740;9.132;2022-10-17T02:51:22;10.30;99.90
8178;DHT22;4130;48.740;9.132;2022-10-17T02:53:55;10.30;99.90
8178;DHT22;4130;48.740;9.132;2022-10-17T02:56:27;10.30;99.90
8178;DHT22;4130;48.740;9.132;2022-10-17T02:58:58;10.20;99.90
8178;DHT22;4130;48.740;9.132;2022-10-17T03:01:25;10.20;99.90
8178;DHT22;4130;48.740;9.132;2022-10-17T03:04:05;10.20;99.90
8178;DHT22;4130;48.740;9.132;2022-10-17T03:06:32;10.20;99.90
8178;DHT22;4130;48.740;9.132;2022-10-17T03:08:58;10.20;99.90
8178;DHT22;4130;48.740;9.132;2022-10-17T03:11:25;10.20;99.90
8178;DHT22;4130;48.740;9.132;2022-10-17T03:13:52;10.20;99.90
8178;DHT22;4130;48.740;9.132;2022-10-17T03:16:18;10.20;99.90
8178;DHT22;4130;48.740;9.132;2022-10-17T03:18:45;10.10;99.90
8178;DHT22;4130;48.740;9.132;2022-10-17T03:21:13;10.20;99.90
8178;DHT22;4130;48.740;9.132;2022-10-17T03:23:40;10.30;99.90
8178;DHT22;4130;48.740;9.132;2022-10-17T03:26:07;10.30;99.90
8178;DHT22;4130;48.740;9.132;2022-10-17T03:28:34;10.30;99.90
8178;DHT22;4130;48.740;9.132;2022-10-17T03:31:05;10.30;99.90
8178;DHT22;4130;48.740;9.132;2022-10-17T03:33:32;10.20;99.90
8178;DHT22;4130;48.740;9.132;2022-10-17T03:35:59;10.20;99.90
8178;DHT22;4130;48.740;9.132;2022-10-17T03:38:31;10.10;99.90
8178;DHT22;4130;48.740;9.132;2022-10-17T03:40:58;10.10;99.90
8178;DHT22;4130;48.740;9.132;2022-10-17T03:43:24;10.10;99.90
8178;DHT22;4130;48.740;9.132;2022-10-17T03:45:51;10.10;99.90
8178;DHT22;4130;48.740;9.132;2022-10-17T03:48:18;10.20;99.90
8178;DHT22;4130;48.740;9.132;2022-10-17T03:50:45;10.20;99.90
8178;DHT22;4130;48.740;9.132;2022-10-17T03:53:11;10.20;99.90
8178;DHT22;4130;48.740;9.132;2022-10-17T03:55:39;10.20;99.90
8178;DHT22;4130;48.740;9.132;2022-10-17T03:58:06;10.20;99.90
8178;DHT22;4130;48.740;9.132;2022-10-17T04:00:35;10.30;99.90
8178;DHT22;4130;48.740;9.132;2022-10-17T04:03:02;10.50;99.90
8178;DHT22;4130;48.740;9.132;2022-10-17T04:05:28;10.20;99.90
8178;DHT22;4130;48.740;9.132;2022-10-17T04:07:55;10.20;99.90
8178;DHT22;4130;48.740;9.132;2022-10-17T04:10:22;10.30;99.90
8178;DHT22;4130;48.740;9.132;2022-10-17T04:12:50;10.20;99.90
8178;DHT22;4130;48.740;9.132;2022-10-17T04:15:17;10.30;99.90
8178;DHT22;4130;48.740;9.132;2022-10-17T04:17:44;10.30;99.90
8178;DHT22;4130;48.740;9.132;2022-10-17T04:20:11;10.40;99.90
8178;DHT22;4130;48.740;9.132;2022-10-17T04:22:38;10.40;99.90
8178;DHT22;4130;48.740;9.132;2022-10-17T04:25:05;10.40;99.90
8178;DHT22;4130;48.740;9.132;2022-10-17T04:27:32;10.50;99.90
8178;DHT22;4130;48.740;9.132;2022-10-17T04:30:00;10.40;99.90
8178;DHT22;4130;48.740;9.132;2022-10-17T04:32:27;10.40;99.90
8178;DHT22;4130;48.740;9.132;2022-10-17T04:34:53;10.40;99.90
8178;DHT22;4130;48.740;9.132;2022-10-17T04:37:20;11.80;99.90
8178;DHT22;4130;48.740;9.132;2022-10-17T04:39:47;10.30;99.90
8178;DHT22;4130;48.740;9.132;2022-10-17T04:42:14;10.30;99.90
8178;DHT22;4130;48.740;9.132;2022-10-17T04:44:40;10.30;99.90
8178;DHT22;4130;48.740;9.132;2022-10-17T04:47:08;10.20;99.90
8178;DHT22;4130;48.740;9.132;2022-10-17T04:49:35;10.20;99.90
8178;DHT22;4130;48.740;9.132;2022-10-17T04:52:02;10.20;99.90
8178;DHT22;4130;48.740;9.132;2022-10-17T04:54:29;10.10;99.90
8178;DHT22;4130;48.740;9.132;2022-10-17T04:56:55;10.10;99.90
8178;DHT22;4130;48.740;9.132;2022-10-17T04:59:22;10.10;99.90
8178;DHT22;4130;48.740;9.132;2022-10-17T05:01:49;10.10;99.90
8178;DHT22;4130;48.740;9.132;2022-10-17T05:04:17;10.10;99.90
8178;DHT22;4130;48.740;9.132;2022-10-17T05:06:44;10.10;99.90
8178;DHT22;4130;48.740;9.132;2022-10-17T05:09:10;10.10;99.90
8178;DHT22;4130;48.740;9.132;2022-10-17T05:11:37;10.10;99.90
8178;DHT22;4130;48.740;9.132;2022-10-17T05:14:04;10.10;99.90
8178;DHT22;4130;48.740;9.132;2022-10-17T05:16:31;10.50;99.90
8178;DHT22;4130;48.740;9.132;2022-10-17T05:18:58;10.10;99.90
8178;DHT22;4130;48.740;9.132;2022-10-17T05:21:27;10.10;99.90
8178;DHT22;4130;48.740;9.132;2022-10-17T05:23:54;10.10;99.90
8178;DHT22;4130;48.740;9.132;2022-10-17T05:26:21;10.10;99.90
8178;DHT22;4130;48.740;9.132;2022-10-17T05:28:48;10.10;99.90
8178;DHT22;4130;48.740;9.132;2022-10-17T05:31:17;10.10;99.90
8178;DHT22;4130;48.740;9.132;2022-10-17T05:33:43;10.10;99.90
8178;DHT22;4130;48.740;9.132;2022-10-17T05:36:10;10.10;99.90
8178;DHT22;4130;48.740;9.132;2022-10-17T05:38:38;10.20;99.90
8178;DHT22;4130;48.740;9.132;2022-10-17T05:41:05;10.20;99.90
8178;DHT22;4130;48.740;9.132;2022-10-17T05:43:32;10.20;99.90
8178;DHT22;4130;48.740;9.132;2022-10-17T05:46:02;10.30;99.90
8178;DHT22;4130;48.740;9.132;2022-10-17T05:48:29;10.40;99.90
8178;DHT22;4130;48.740;9.132;2022-10-17T05:51:00;10.40;99.90
8178;DHT22;4130;48.740;9.132;2022-10-17T05:53:29;10.50;99.90
8178;DHT22;4130;48.740;9.132;2022-10-17T05:55:59;10.40;99.90
8178;DHT22;4130;48.740;9.132;2022-10-17T05:58:26;10.40;99.90
8178;DHT22;4130;48.740;9.132;2022-10-17T06:00:57;10.40;99.90
8178;DHT22;4130;48.740;9.132;2022-10-17T06:03:24;10.40;99.90
8178;DHT22;4130;48.740;9.132;2022-10-17T06:05:51;10.40;99.90
8178;DHT22;4130;48.740;9.132;2022-10-17T06:08:18;10.40;99.90
8178;DHT22;4130;48.740;9.132;2022-10-17T06:10:46;10.40;99.90
8178;DHT22;4130;48.740;9.132;2022-10-17T06:13:15;10.40;99.90
8178;DHT22;4130;48.740;9.132;2022-10-17T06:15:42;10.40;99.90
8178;DHT22;4130;48.740;9.132;2022-10-17T06:18:10;10.40;99.90
8178;DHT22;4130;48.740;9.132;2022-10-17T06:20:37;10.50;99.90
8178;DHT22;4130;48.740;9.132;2022-10-17T06:23:04;10.50;99.90
8178;DHT22;4130;48.740;9.132;2022-10-17T06:25:31;10.50;99.90
8178;DHT22;4130;48.740;9.132;2022-10-17T06:27:58;10.40;99.90
8178;DHT22;4130;48.740;9.132;2022-10-17T06:30:26;10.40;99.90
8178;DHT22;4130;48.740;9.132;2022-10-17T06:32:53;10.50;99.90
8178;DHT22;4130;48.740;9.132;2022-10-17T06:35:20;10.50;99.90
8178;DHT22;4130;48.740;9.132;2022-10-17T06:37:47;10.50;99.90
8178;DHT22;4130;48.740;9.132;2022-10-17T06:40:14;10.60;99.90
8178;DHT22;4130;48.740;9.132;2022-10-17T06:42:42;10.50;99.90
8178;DHT22;4130;48.740;9.132;2022-10-17T06:45:10;10.60;99.90
8178;DHT22;4130;48.740;9.132;2022-10-17T06:47:38;10.70;99.90
8178;DHT22;4130;48.740;9.132;2022-10-17T06:50:05;10.70;99.90
8178;DHT22;4130;48.740;9.132;2022-10-17T06:52:32;10.80;99.90
8178;DHT22;4130;48.740;9.132;2022-10-17T06:54:59;10.80;99.90
8178;DHT22;4130;48.740;9.132;2022-10-17T06:57:26;10.80;99.90
8178;DHT22;4130;48.740;9.132;2022-10-17T06:59:53;10.80;99.90
8178;DHT22;4130;48.740;9.132;2022-10-17T07:02:22;10.90;99.90
8178;DHT22;4130;48.740;9.132;2022-10-17T07:04:50;11.00;99.90
8178;DHT22;4130;48.740;9.132;2022-10-17T07:07:17;11.00;99.90
8178;DHT22;4130;48.740;9.132;2022-10-17T07:09:44;11.20;99.90
8178;DHT22;4130;48.740;9.132;2022-10-17T07:12:10;11.10;99.90
8178;DHT22;4130;48.740;9.132;2022-10-17T07:14:37;11.20;99.90
8178;DHT22;4130;48.740;9.132;2022-10-17T07:17:04;11.30;99.90
8178;DHT22;4130;48.740;9.132;2022-10-17T07:19:31;11.30;99.90
8178;DHT22;4130;48.740;9.132;2022-10-17T07:22:00;11.40;99.90
8178;DHT22;4130;48.740;9.132;2022-10-17T07:24:27;11.40;99.90
8178;DHT22;4130;48.740;9.132;2022-10-17T07:26:53;11.60;99.90
8178;DHT22;4130;48.740;9.132;2022-10-17T07:29:20;11.70;99.90
8178;DHT22;4130;48.740;9.132;2022-10-17T07:31:47;11.90;99.90
8178;DHT22;4130;48.740;9.132;2022-10-17T07:34:14;12.10;99.90
8178;DHT22;4130;48.740;9.132;2022-10-17T07:36:41;12.20;99.90
8178;DHT22;4130;48.740;9.132;2022-10-17T07:39:09;12.30;99.90
8178;DHT22;4130;48.740;9.132;2022-10-17T07:41:36;12.60;99.90
8178;DHT22;4130;48.740;9.132;2022-10-17T07:44:03;12.70;99.90
8178;DHT22;4130;48.740;9.132;2022-10-17T07:46:30;12.80;99.90
8178;DHT22;4130;48.740;9.132;2022-10-17T07:48:57;12.90;99.90
8178;DHT22;4130;48.740;9.132;2022-10-17T07:51:24;13.10;99.90
8178;DHT22;4130;48.740;9.132;2022-10-17T07:53:52;13.10;99.90
8178;DHT22;4130;48.740;9.132;2022-10-17T07:56:20;13.30;99.90
8178;DHT22;4130;48.740;9.132;2022-10-17T07:58:49;13.40;99.90
8178;DHT22;4130;48.740;9.132;2022-10-17T08:01:16;13.50;99.90
8178;DHT22;4130;48.740;9.132;2022-10-17T08:03:44;13.60;99.90
8178;DHT22;4130;48.740;9.132;2022-10-17T08:06:11;13.70;99.90
8178;DHT22;4130;48.740;9.132;2022-10-17T08:08:39;13.90;99.90
8178;DHT22;4130;48.740;9.132;2022-10-17T08:11:07;14.20;99.90
8178;DHT22;4130;48.740;9.132;2022-10-17T08:13:36;14.30;99.90
8178;DHT22;4130;48.740;9.132;2022-10-17T08:16:06;14.40;99.90
8178;DHT22;4130;48.740;9.132;2022-10-17T08:18:33;14.50;99.90
8178;DHT22;4130;48.740;9.132;2022-10-17T08:21:00;14.70;99.90
8178;DHT22;4130;48.740;9.132;2022-10-17T08:23:28;14.80;99.90
8178;DHT22;4130;48.740;9.132;2022-10-17T08:25:58;14.90;99.90
8178;DHT22;4130;48.740;9.132;2022-10-17T08:28:25;15.10;99.90
8178;DHT22;4130;48.740;9.132;2022-10-17T08:30:53;15.20;99.90
8178;DHT22;4130;48.740;9.132;2022-10-17T08:33:26;15.90;99.90
8178;DHT22;4130;48.740;9.132;2022-10-17T08:35:53;15.50;99.90
8178;DHT22;4130;48.740;9.132;2022-10-17T08:38:20;15.60;99.90
8178;DHT22;4130;48.740;9.132;2022-10-17T08:40:48;15.80;99.90
8178;DHT22;4130;48.740;9.132;2022-10-17T08:43:23;16.00;99.90
8178;DHT22;4130;48.740;9.132;2022-10-17T08:45:56;16.20;99.90
8178;DHT22;4130;48.740;9.132;2022-10-17T08:48:26;16.50;99.90
8178;DHT22;4130;48.740;9.132;2022-10-17T08:50:57;16.80;99.90
8178;DHT22;4130;48.740;9.132;2022-10-17T08:53:28;17.30;99.90
8178;DHT22;4130;48.740;9.132;2022-10-17T08:55:57;17.50;99.90
8178;DHT22;4130;48.740;9.132;2022-10-17T08:58:29;17.90;99.90
8178;DHT22;4130;48.740;9.132;2022-10-17T09:01:03;18.20;99.90
8178;DHT22;4130;48.740;9.132;2022-10-17T09:03:41;18.50;99.90
8178;DHT22;4130;48.740;9.132;2022-10-17T09:06:17;18.70;99.90
8178;DHT22;4130;48.740;9.132;2022-10-17T09:08:53;19.00;99.90
8178;DHT22;4130;48.740;9.132;2022-10-17T09:11:35;19.10;99.90
8178;DHT22;4130;48.740;9.132;2022-10-17T09:14:11;19.20;99.90
8178;DHT22;4130;48.740;9.132;2022-10-17T09:16:59;19.40;99.90
8178;DHT22;4130;48.740;9.132;2022-10-17T09:19:32;19.60;99.90
8178;DHT22;4130;48.740;9.132;2022-10-17T09:22:03;19.80;99.90
8178;DHT22;4130;48.740;9.132;2022-10-17T09:24:38;19.90;99.90
8178;DHT22;4130;48.740;9.132;2022-10-17T09:27:14;20.00;99.90
8178;DHT22;4130;48.740;9.132;2022-10-17T09:29:45;20.10;99.90
8178;DHT22;4130;48.740;9.132;2022-10-17T09:32:19;20.20;99.90
8178;DHT22;4130;48.740;9.132;2022-10-17T09:34:47;20.40;99.90
8178;DHT22;4130;48.740;9.132;2022-10-17T09:37:15;20.40;99.90
8178;DHT22;4130;48.740;9.132;2022-10-17T09:39:43;20.50;99.90
8178;DHT22;4130;48.740;9.132;2022-10-17T09:42:12;20.60;99.90
8178;DHT22;4130;48.740;9.132;2022-10-17T09:44:47;20.60;99.90
8178;DHT22;4130;48.740;9.132;2022-10-17T09:47:24;20.80;99.90
8178;DHT22;4130;48.740;9.132;2022-10-17T09:49:53;21.00;99.90
8178;DHT22;4130;48.740;9.132;2022-10-17T09:52:25;21.10;99.90
8178;DHT22;4130;48.740;9.132;2022-10-17T09:54:57;21.60;99.90
8178;DHT22;4130;48.740;9.132;2022-10-17T09:57:25;21.30;99.90
8178;DHT22;4130;48.740;9.132;2022-10-17T09:59:57;21.50;99.90
8178;DHT22;4130;48.740;9.132;2022-10-17T10:02:27;21.60;99.90
8178;DHT22;4130;48.740;9.132;2022-10-17T10:04:57;21.50;99.90
8178;DHT22;4130;48.740;9.132;2022-10-17T10:07:26;21.70;99.90
8178;DHT22;4130;48.740;9.132;2022-10-17T10:09:53;21.70;99.90
8178;DHT22;4130;48.740;9.132;2022-10-17T10:12:22;21.80;99.90
8178;DHT22;4130;48.740;9.132;2022-10-17T10:14:49;21.80;99.90
8178;DHT22;4130;48.740;9.132;2022-10-17T10:17:34;21.90;99.90
8178;DHT22;4130;48.740;9.132;2022-10-17T10:20:05;22.10;99.90
8178;DHT22;4130;48.740;9.132;2022-10-17T10:23:04;22.20;99.90
8178;DHT22;4130;48.740;9.132;2022-10-17T10:25:31;22.40;99.90
8178;DHT22;4130;48.740;9.132;2022-10-17T10:27:58;22.30;99.90
8178;DHT22;4130;48.740;9.132;2022-10-17T10:30:27;22.40;99.90
8178;DHT22;4130;48.740;9.132;2022-10-17T10:32:57;22.40;99.90
8178;DHT22;4130;48.740;9.132;2022-10-17T10:35:30;22.50;99.90
8178;DHT22;4130;48.740;9.132;2022-10-17T10:37:58;22.50;99.90
8178;DHT22;4130;48.740;9.132;2022-10-17T10:40:29;22.50;99.90
8178;DHT22;4130;48.740;9.132;2022-10-17T10:42:58;22.60;99.90
8178;DHT22;4130;48.740;9.132;2022-10-17T10:45:27;22.60;99.90
8178;DHT22;4130;48.740;9.132;2022-10-17T10:47:57;22.80;99.90
8178;DHT22;4130;48.740;9.132;2022-10-17T10:50:28;23.10;99.90
8178;DHT22;4130;48.740;9.132;2022-10-17T10:53:10;23.10;99.90
8178;DHT22;4130;48.740;9.132;2022-10-17T10:55:43;23.10;99.90
8178;DHT22;4130;48.740;9.132;2022-10-17T10:58:23;22.90;99.90
8178;DHT22;4130;48.740;9.132;2022-10-17T11:00:52;23.00;99.90
8178;DHT22;4130;48.740;9.132;2022-10-17T11:03:26;23.20;99.90
8178;DHT22;4130;48.740;9.132;2022-10-17T11:05:57;23.20;99.90
8178;DHT22;4130;48.740;9.132;2022-10-17T11:08:30;23.20;99.90
8178;DHT22;4130;48.740;9.132;2022-10-17T11:11:06;23.20;99.90
8178;DHT22;4130;48.740;9.132;2022-10-17T11:13:41;23.40;99.90
8178;DHT22;4130;48.740;9.132;2022-10-17T11:16:20;23.50;99.90
8178;DHT22;4130;48.740;9.132;2022-10-17T11:18:52;23.70;99.90
8178;DHT22;4130;48.740;9.132;2022-10-17T11:21:27;23.90;99.90
8178;DHT22;4130;48.740;9.132;2022-10-17T11:23:59;24.10;99.90
8178;DHT22;4130;48.740;9.132;2022-10-17T11:26:28;24.20;99.90
8178;DHT22;4130;48.740;9.132;2022-10-17T11:28:58;24.20;99.90
8178;DHT22;4130;48.740;9.132;2022-10-17T11:31:30;24.30;99.90
8178;DHT22;4130;48.740;9.132;2022-10-17T11:34:00;24.50;99.90
8178;DHT22;4130;48.740;9.132;2022-10-17T11:36:31;24.40;99.90
8178;DHT22;4130;48.740;9.132;2022-10-17T11:39:01;24.60;99.90
8178;DHT22;4130;48.740;9.132;2022-10-17T11:41:32;24.70;99.90
8178;DHT22;4130;48.740;9.132;2022-10-17T11:44:12;24.60;99.90
8178;DHT22;4130;48.740;9.132;2022-10-17T11:46:42;24.60;99.90
8178;DHT22;4130;48.740;9.132;2022-10-17T11:49:14;24.70;99.90
8178;DHT22;4130;48.740;9.132;2022-10-17T11:51:45;24.60;99.90
8178;DHT22;4130;48.740;9.132;2022-10-17T11:54:15;24.50;99.90
8178;DHT22;4130;48.740;9.132;2022-10-17T11:56:57;24.50;99.90
8178;DHT22;4130;48.740;9.132;2022-10-17T11:59:51;24.80;99.90
8178;DHT22;4130;48.740;9.132;2022-10-17T12:02:26;24.60;99.90
8178;DHT22;4130;48.740;9.132;2022-10-17T12:05:01;24.90;99.90
8178;DHT22;4130;48.740;9.132;2022-10-17T12:07:36;25.00;99.90
8178;DHT22;4130;48.740;9.132;2022-10-17T12:10:14;24.60;99.90
8178;DHT22;4130;48.740;9.132;2022-10-17T12:12:43;24.60;99.90
8178;DHT22;4130;48.740;9.132;2022-10-17T12:15:27;24.60;99.90
8178;DHT22;4130;48.740;9.132;2022-10-17T12:17:55;24.70;99.90
8178;DHT22;4130;48.740;9.132;2022-10-17T12:20:30;24.70;99.90
8178;DHT22;4130;48.740;9.132;2022-10-17T12:23:03;24.60;99.90
8178;DHT22;4130;48.740;9.132;2022-10-17T12:25:33;24.60;99.90
8178;DHT22;4130;48.740;9.132;2022-10-17T12:28:15;24.70;99.90
8178;DHT22;4130;48.740;9.132;2022-10-17T12:30:50;24.70;99.90
8178;DHT22;4130;48.740;9.132;2022-10-17T12:33:19;24.70;99.90
8178;DHT22;4130;48.740;9.132;2022-10-17T12:35:50;24.60;99.90
8178;DHT22;4130;48.740;9.132;2022-10-17T12:38:25;24.60;99.90
8178;DHT22;4130;48.740;9.132;2022-10-17T12:40:57;24.60;99.90
8178;DHT22;4130;48.740;9.132;2022-10-17T12:43:49;24.60;99.90
8178;DHT22;4130;48.740;9.132;2022-10-17T12:49:39;24.50;99.90
8178;DHT22;4130;48.740;9.132;2022-10-17T12:52:26;24.70;99.90
8178;DHT22;4130;48.740;9.132;2022-10-17T12:55:00;24.90;99.90
8178;DHT22;4130;48.740;9.132;2022-10-17T12:57:34;25.00;99.80
8178;DHT22;4130;48.740;9.132;2022-10-17T13:00:11;25.00;99.90
8178;DHT22;4130;48.740;9.132;2022-10-17T13:02:39;24.90;99.70
8178;DHT22;4130;48.740;9.132;2022-10-17T13:05:12;25.10;99.30
8178;DHT22;4130;48.740;9.132;2022-10-17T13:07:43;25.20;98.10
8178;DHT22;4130;48.740;9.132;2022-10-17T13:10:19;24.90;98.50
8178;DHT22;4130;48.740;9.132;2022-10-17T13:12:46;24.90;98.90
8178;DHT22;4130;48.740;9.132;2022-10-17T13:15:16;24.70;98.20
8178;DHT22;4130;48.740;9.132;2022-10-17T13:17:43;24.60;98.70
8178;DHT22;4130;48.740;9.132;2022-10-17T13:20:18;24.60;98.30
8178;DHT22;4130;48.740;9.132;2022-10-17T13:22:49;24.40;98.60
8178;DHT22;4130;48.740;9.132;2022-10-17T13:25:17;24.40;98.30
8178;DHT22;4130;48.740;9.132;2022-10-17T13:27:45;24.30;98.60
8178;DHT22;4130;48.740;9.132;2022-10-17T13:30:26;24.30;98.60
8178;DHT22;4130;48.740;9.132;2022-10-17T13:32:53;24.30;99.30
8178;DHT22;4130;48.740;9.132;2022-10-17T13:35:26;24.30;99.90
8178;DHT22;4130;48.740;9.132;2022-10-17T13:37:56;24.20;99.90
8178;DHT22;4130;48.740;9.132;2022-10-17T13:40:24;24.30;99.90
8178;DHT22;4130;48.740;9.132;2022-10-17T13:42:54;24.00;99.90
8178;DHT22;4130;48.740;9.132;2022-10-17T13:45:26;23.80;99.90
8178;DHT22;4130;48.740;9.132;2022-10-17T13:47:54;23.80;99.90
8178;DHT22;4130;48.740;9.132;2022-10-17T13:50:30;23.70;99.90
8178;DHT22;4130;48.740;9.132;2022-10-17T13:53:16;23.70;99.90
8178;DHT22;4130;48.740;9.132;2022-10-17T13:55:58;23.50;99.90
8178;DHT22;4130;48.740;9.132;2022-10-17T13:58:25;23.50;99.90
8178;DHT22;4130;48.740;9.132;2022-10-17T14:00:55;23.50;99.90
8178;DHT22;4130;48.740;9.132;2022-10-17T14:03:22;23.40;99.90
8178;DHT22;4130;48.740;9.132;2022-10-17T14:06:05;23.50;99.90
8178;DHT22;4130;48.740;9.132;2022-10-17T14:08:35;23.40;99.90
8178;DHT22;4130;48.740;9.132;2022-10-17T14:11:12;23.40;99.90
8178;DHT22;4130;48.740;9.132;2022-10-17T14:13:40;23.50;99.90
8178;DHT22;4130;48.740;9.132;2022-10-17T14:16:08;23.40;99.90
8178;DHT22;4130;48.740;9.132;2022-10-17T14:18:36;23.40;99.90
8178;DHT22;4130;48.740;9.132;2022-10-17T14:21:04;23.50;99.90
8178;DHT22;4130;48.740;9.132;2022-10-17T14:23:37;23.40;99.90
8178;DHT22;4130;48.740;9.132;2022-10-17T14:26:07;23.40;99.90
8178;DHT22;4130;48.740;9.132;2022-10-17T14:28:34;23.40;99.90
8178;DHT22;4130;48.740;9.132;2022-10-17T14:31:23;23.40;99.90
8178;DHT22;4130;48.740;9.132;2022-10-17T14:33:51;23.30;99.90
8178;DHT22;4130;48.740;9.132;2022-10-17T14:36:20;23.30;99.90
8178;DHT22;4130;48.740;9.132;2022-10-17T14:38:50;23.20;99.90
8178;DHT22;4130;48.740;9.132;2022-10-17T14:41:22;23.10;99.90
8178;DHT22;4130;48.740;9.132;2022-10-17T14:43:54;23.00;99.90
8178;DHT22;4130;48.740;9.132;2022-10-17T14:46:22;22.90;99.90
8178;DHT22;4130;48.740;9.132;2022-10-17T14:48:54;22.90;99.90
8178;DHT22;4130;48.740;9.132;2022-10-17T14:51:21;22.80;99.90
8178;DHT22;4130;48.740;9.132;2022-10-17T14:54:01;22.70;99.90
8178;DHT22;4130;48.740;9.132;2022-10-17T14:56:35;22.60;99.90
8178;DHT22;4130;48.740;9.132;2022-10-17T14:59:02;22.50;99.90
8178;DHT22;4130;48.740;9.132;2022-10-17T15:01:31;22.50;99.90
8178;DHT22;4130;48.740;9.132;2022-10-17T15:03:58;22.50;99.90
8178;DHT22;4130;48.740;9.132;2022-10-17T15:06:29;22.40;99.90
8178;DHT22;4130;48.740;9.132;2022-10-17T15:08:58;22.30;99.90
8178;DHT22;4130;48.740;9.132;2022-10-17T15:11:25;22.30;99.90
8178;DHT22;4130;48.740;9.132;2022-10-17T15:13:53;22.20;99.90
8178;DHT22;4130;48.740;9.132;2022-10-17T15:16:22;22.10;99.90
8178;DHT22;4130;48.740;9.132;2022-10-17T15:18:51;22.10;99.90
8178;DHT22;4130;48.740;9.132;2022-10-17T15:21:19;22.00;99.90
8178;DHT22;4130;48.740;9.132;2022-10-17T15:23:46;22.00;99.90
8178;DHT22;4130;48.740;9.132;2022-10-17T15:26:17;22.10;99.90
8178;DHT22;4130;48.740;9.132;2022-10-17T15:28:45;21.90;99.90
8178;DHT22;4130;48.740;9.132;2022-10-17T15:31:15;21.70;99.90
8178;DHT22;4130;48.740;9.132;2022-10-17T15:33:42;21.90;99.90
8178;DHT22;4130;48.740;9.132;2022-10-17T15:36:24;21.80;99.90
8178;DHT22;4130;48.740;9.132;2022-10-17T15:38:54;21.70;99.90
8178;DHT22;4130;48.740;9.132;2022-10-17T15:41:24;21.70;99.90
8178;DHT22;4130;48.740;9.132;2022-10-17T15:43:51;21.60;99.90
8178;DHT22;4130;48.740;9.132;2022-10-17T15:46:21;21.40;99.90
8178;DHT22;4130;48.740;9.132;2022-10-17T15:48:48;21.40;99.90
8178;DHT22;4130;48.740;9.132;2022-10-17T15:51:16;21.30;99.90
8178;DHT22;4130;48.740;9.132;2022-10-17T15:53:43;21.60;99.90
8178;DHT22;4130;48.740;9.132;2022-10-17T15:56:19;21.00;99.90
8178;DHT22;4130;48.740;9.132;2022-10-17T15:58:48;20.90;99.90
8178;DHT22;4130;48.740;9.132;2022-10-17T16:01:20;20.60;99.90
8178;DHT22;4130;48.740;9.132;2022-10-17T16:03:47;20.40;99.90
8178;DHT22;4130;48.740;9.132;2022-10-17T16:06:16;20.20;99.90
8178;DHT22;4130;48.740;9.132;2022-10-17T16:08:43;20.00;99.90
8178;DHT22;4130;48.740;9.132;2022-10-17T16:11:20;19.80;99.90
8178;DHT22;4130;48.740;9.132;2022-10-17T16:13:52;19.60;99.90
8178;DHT22;4130;48.740;9.132;2022-10-17T16:16:20;19.40;99.90
8178;DHT22;4130;48.740;9.132;2022-10-17T16:18:48;19.20;99.90
8178;DHT22;4130;48.740;9.132;2022-10-17T16:21:15;19.00;99.90
8178;DHT22;4130;48.740;9.132;2022-10-17T16:23:43;18.90;99.90
8178;DHT22;4130;48.740;9.132;2022-10-17T16:26:09;18.70;99.90
8178;DHT22;4130;48.740;9.132;2022-10-17T16:28:38;18.50;99.90
8178;DHT22;4130;48.740;9.132;2022-10-17T16:31:15;18.40;99.90